< < Back
Terminal Aerodrome Forecast


Current Version              Previous Versions:   1  2  3  4  5  6  7  8  9  

Terminal Aerodrome Forecast

585
FTUS42 KCHS 272322 CCA
TAFCHS
TAF COR
KCHS 272322Z 2800/2824 14005KT P6SM SCT020
     FM281800 14011KT P6SM SCT040=

Latest METAR

182
SAUS80 KWBC 280000 RRC
MTRCHS
METAR KCHS 272356Z 15008KT 10SM FEW030 SCT100 BKN250 26/19 A3021 RMK AO2
SLP228 T02560189 10300 20256 53003


USA.gov is the U.S. government's official web portal to all federal, state and local government web resources and services.